sensor_id;sensor_type;location;lat;lon;timestamp;P1;durP1;ratioP1;P2;durP2;ratioP2
46230;SDS011;31949;51.404;-0.038;2022-12-11T00:01:16;24.60;;;15.27;;
46230;SDS011;31949;51.404;-0.038;2022-12-11T00:03:46;24.27;;;14.45;;
46230;SDS011;31949;51.404;-0.038;2022-12-11T00:06:15;21.63;;;13.65;;
46230;SDS011;31949;51.404;-0.038;2022-12-11T00:08:44;26.73;;;15.77;;
46230;SDS011;31949;51.404;-0.038;2022-12-11T00:11:13;22.20;;;14.00;;
46230;SDS011;31949;51.404;-0.038;2022-12-11T00:13:41;20.92;;;12.50;;
46230;SDS011;31949;51.404;-0.038;2022-12-11T00:16:09;19.50;;;12.55;;
46230;SDS011;31949;51.404;-0.038;2022-12-11T00:18:37;17.27;;;11.13;;
46230;SDS011;31949;51.404;-0.038;2022-12-11T00:21:09;18.35;;;12.48;;
46230;SDS011;31949;51.404;-0.038;2022-12-11T00:23:39;19.27;;;12.38;;
46230;SDS011;31949;51.404;-0.038;2022-12-11T00:26:08;19.73;;;12.35;;
46230;SDS011;31949;51.404;-0.038;2022-12-11T00:28:38;20.50;;;11.98;;
46230;SDS011;31949;51.404;-0.038;2022-12-11T00:31:08;14.43;;;10.73;;
46230;SDS011;31949;51.404;-0.038;2022-12-11T00:33:41;18.17;;;12.43;;
46230;SDS011;31949;51.404;-0.038;2022-12-11T00:36:11;19.60;;;11.07;;
46230;SDS011;31949;51.404;-0.038;2022-12-11T00:38:39;14.45;;;10.55;;
46230;SDS011;31949;51.404;-0.038;2022-12-11T00:41:07;20.77;;;13.18;;
46230;SDS011;31949;51.404;-0.038;2022-12-11T00:43:34;19.17;;;14.02;;
46230;SDS011;31949;51.404;-0.038;2022-12-11T00:46:02;20.83;;;13.32;;
46230;SDS011;31949;51.404;-0.038;2022-12-11T00:48:29;24.10;;;15.77;;
46230;SDS011;31949;51.404;-0.038;2022-12-11T00:50:56;23.83;;;14.65;;
46230;SDS011;31949;51.404;-0.038;2022-12-11T00:53:24;16.80;;;11.32;;
46230;SDS011;31949;51.404;-0.038;2022-12-11T00:55:51;20.45;;;12.95;;
46230;SDS011;31949;51.404;-0.038;2022-12-11T00:58:18;21.10;;;11.60;;
46230;SDS011;31949;51.404;-0.038;2022-12-11T01:00:46;17.45;;;11.82;;
46230;SDS011;31949;51.404;-0.038;2022-12-11T01:03:15;19.92;;;12.50;;
46230;SDS011;31949;51.404;-0.038;2022-12-11T01:05:50;16.98;;;11.43;;
46230;SDS011;31949;51.404;-0.038;2022-12-11T01:08:18;18.58;;;11.88;;
46230;SDS011;31949;51.404;-0.038;2022-12-11T01:10:46;21.40;;;12.90;;
46230;SDS011;31949;51.404;-0.038;2022-12-11T01:13:14;16.85;;;11.60;;
46230;SDS011;31949;51.404;-0.038;2022-12-11T01:15:42;17.80;;;9.57;;
46230;SDS011;31949;51.404;-0.038;2022-12-11T01:18:12;18.85;;;11.65;;
46230;SDS011;31949;51.404;-0.038;2022-12-11T01:20:40;15.75;;;10.75;;
46230;SDS011;31949;51.404;-0.038;2022-12-11T01:23:09;21.08;;;11.95;;
46230;SDS011;31949;51.404;-0.038;2022-12-11T01:25:41;15.70;;;9.70;;
46230;SDS011;31949;51.404;-0.038;2022-12-11T01:28:08;15.30;;;9.38;;
46230;SDS011;31949;51.404;-0.038;2022-12-11T01:30:39;18.13;;;10.05;;
46230;SDS011;31949;51.404;-0.038;2022-12-11T01:33:08;19.88;;;10.60;;
46230;SDS011;31949;51.404;-0.038;2022-12-11T01:35:37;19.13;;;11.13;;
46230;SDS011;31949;51.404;-0.038;2022-12-11T01:38:05;17.75;;;11.43;;
46230;SDS011;31949;51.404;-0.038;2022-12-11T01:40:32;14.38;;;10.48;;
46230;SDS011;31949;51.404;-0.038;2022-12-11T01:42:59;16.10;;;11.23;;
46230;SDS011;31949;51.404;-0.038;2022-12-11T01:45:31;15.35;;;10.63;;
46230;SDS011;31949;51.404;-0.038;2022-12-11T01:48:05;16.20;;;9.98;;
46230;SDS011;31949;51.404;-0.038;2022-12-11T01:50:37;16.60;;;10.85;;
46230;SDS011;31949;51.404;-0.038;2022-12-11T01:53:11;20.88;;;10.07;;
46230;SDS011;31949;51.404;-0.038;2022-12-11T01:55:42;15.85;;;10.38;;
46230;SDS011;31949;51.404;-0.038;2022-12-11T01:58:11;16.88;;;10.40;;
46230;SDS011;31949;51.404;-0.038;2022-12-11T02:00:39;16.52;;;10.63;;
46230;SDS011;31949;51.404;-0.038;2022-12-11T02:03:06;16.52;;;10.00;;
46230;SDS011;31949;51.404;-0.038;2022-12-11T02:05:33;14.95;;;8.82;;
46230;SDS011;31949;51.404;-0.038;2022-12-11T02:08:00;11.90;;;7.68;;
46230;SDS011;31949;51.404;-0.038;2022-12-11T02:10:32;18.15;;;9.60;;
46230;SDS011;31949;51.404;-0.038;2022-12-11T02:13:43;17.77;;;9.27;;
46230;SDS011;31949;51.404;-0.038;2022-12-11T02:17:03;16.80;;;9.02;;
46230;SDS011;31949;51.404;-0.038;2022-12-11T02:28:12;14.52;;;8.48;;
46230;SDS011;31949;51.404;-0.038;2022-12-11T02:30:56;17.38;;;9.73;;
46230;SDS011;31949;51.404;-0.038;2022-12-11T02:33:34;12.43;;;8.35;;
46230;SDS011;31949;51.404;-0.038;2022-12-11T02:36:07;12.80;;;8.30;;
46230;SDS011;31949;51.404;-0.038;2022-12-11T02:38:36;16.98;;;9.20;;
46230;SDS011;31949;51.404;-0.038;2022-12-11T02:41:07;13.00;;;9.18;;
46230;SDS011;31949;51.404;-0.038;2022-12-11T02:43:37;12.63;;;8.65;;
46230;SDS011;31949;51.404;-0.038;2022-12-11T02:46:05;13.02;;;7.78;;
46230;SDS011;31949;51.404;-0.038;2022-12-11T02:48:33;14.13;;;8.27;;
46230;SDS011;31949;51.404;-0.038;2022-12-11T02:51:02;15.27;;;9.07;;
46230;SDS011;31949;51.404;-0.038;2022-12-11T02:53:30;12.50;;;8.02;;
46230;SDS011;31949;51.404;-0.038;2022-12-11T02:56:03;10.10;;;7.72;;
46230;SDS011;31949;51.404;-0.038;2022-12-11T02:58:36;11.48;;;8.18;;
46230;SDS011;31949;51.404;-0.038;2022-12-11T03:01:09;13.10;;;7.75;;
46230;SDS011;31949;51.404;-0.038;2022-12-11T03:03:36;13.52;;;6.97;;
46230;SDS011;31949;51.404;-0.038;2022-12-11T03:06:04;12.18;;;7.13;;
46230;SDS011;31949;51.404;-0.038;2022-12-11T03:08:31;12.15;;;6.40;;
46230;SDS011;31949;51.404;-0.038;2022-12-11T03:10:58;10.48;;;6.65;;
46230;SDS011;31949;51.404;-0.038;2022-12-11T03:13:25;10.48;;;6.57;;
46230;SDS011;31949;51.404;-0.038;2022-12-11T03:18:43;13.80;;;7.75;;
46230;SDS011;31949;51.404;-0.038;2022-12-11T03:21:30;14.57;;;8.10;;
46230;SDS011;31949;51.404;-0.038;2022-12-11T03:26:59;16.02;;;9.55;;
46230;SDS011;31949;51.404;-0.038;2022-12-11T03:29:30;14.82;;;9.32;;
46230;SDS011;31949;51.404;-0.038;2022-12-11T03:32:09;11.55;;;7.10;;
46230;SDS011;31949;51.404;-0.038;2022-12-11T03:34:45;11.70;;;6.95;;
46230;SDS011;31949;51.404;-0.038;2022-12-11T03:37:24;12.52;;;6.35;;
46230;SDS011;31949;51.404;-0.038;2022-12-11T03:39:54;10.48;;;6.25;;
46230;SDS011;31949;51.404;-0.038;2022-12-11T03:42:24;10.88;;;7.03;;
46230;SDS011;31949;51.404;-0.038;2022-12-11T03:44:53;11.20;;;6.95;;
46230;SDS011;31949;51.404;-0.038;2022-12-11T03:47:22;13.43;;;8.65;;
46230;SDS011;31949;51.404;-0.038;2022-12-11T03:49:53;13.80;;;8.40;;
46230;SDS011;31949;51.404;-0.038;2022-12-11T03:52:22;13.07;;;7.75;;
46230;SDS011;31949;51.404;-0.038;2022-12-11T03:54:52;13.88;;;7.15;;
46230;SDS011;31949;51.404;-0.038;2022-12-11T03:57:24;10.60;;;7.90;;
46230;SDS011;31949;51.404;-0.038;2022-12-11T03:59:54;14.35;;;8.60;;
46230;SDS011;31949;51.404;-0.038;2022-12-11T04:02:22;11.82;;;7.50;;
46230;SDS011;31949;51.404;-0.038;2022-12-11T04:04:49;11.10;;;6.90;;
46230;SDS011;31949;51.404;-0.038;2022-12-11T04:07:19;10.20;;;7.30;;
46230;SDS011;31949;51.404;-0.038;2022-12-11T04:09:49;10.98;;;7.32;;
46230;SDS011;31949;51.404;-0.038;2022-12-11T04:12:19;11.25;;;6.47;;
46230;SDS011;31949;51.404;-0.038;2022-12-11T04:14:46;11.00;;;6.78;;
46230;SDS011;31949;51.404;-0.038;2022-12-11T04:17:39;11.18;;;6.38;;
46230;SDS011;31949;51.404;-0.038;2022-12-11T04:20:25;10.15;;;6.35;;
46230;SDS011;31949;51.404;-0.038;2022-12-11T04:23:13;11.40;;;6.93;;
46230;SDS011;31949;51.404;-0.038;2022-12-11T04:26:07;9.75;;;6.35;;
46230;SDS011;31949;51.404;-0.038;2022-12-11T04:28:38;11.95;;;6.43;;
46230;SDS011;31949;51.404;-0.038;2022-12-11T04:31:05;13.93;;;7.65;;
46230;SDS011;31949;51.404;-0.038;2022-12-11T04:33:40;12.98;;;7.28;;
46230;SDS011;31949;51.404;-0.038;2022-12-11T04:36:09;12.27;;;7.57;;
46230;SDS011;31949;51.404;-0.038;2022-12-11T04:38:37;13.90;;;7.65;;
46230;SDS011;31949;51.404;-0.038;2022-12-11T04:41:08;12.52;;;8.10;;
46230;SDS011;31949;51.404;-0.038;2022-12-11T04:43:37;12.82;;;8.23;;
46230;SDS011;31949;51.404;-0.038;2022-12-11T04:46:07;11.43;;;6.95;;
46230;SDS011;31949;51.404;-0.038;2022-12-11T04:48:35;13.65;;;7.38;;
46230;SDS011;31949;51.404;-0.038;2022-12-11T04:51:04;11.50;;;6.20;;
46230;SDS011;31949;51.404;-0.038;2022-12-11T04:53:31;10.30;;;7.18;;
46230;SDS011;31949;51.404;-0.038;2022-12-11T04:56:09;14.02;;;6.32;;
46230;SDS011;31949;51.404;-0.038;2022-12-11T04:58:38;11.10;;;6.03;;
46230;SDS011;31949;51.404;-0.038;2022-12-11T05:01:11;10.27;;;5.90;;
46230;SDS011;31949;51.404;-0.038;2022-12-11T05:03:46;10.48;;;6.15;;
46230;SDS011;31949;51.404;-0.038;2022-12-11T05:06:14;10.48;;;5.93;;
46230;SDS011;31949;51.404;-0.038;2022-12-11T05:08:41;10.50;;;6.72;;
46230;SDS011;31949;51.404;-0.038;2022-12-11T05:11:11;14.93;;;8.05;;
46230;SDS011;31949;51.404;-0.038;2022-12-11T05:13:40;9.27;;;5.80;;
46230;SDS011;31949;51.404;-0.038;2022-12-11T05:16:08;9.15;;;6.03;;
46230;SDS011;31949;51.404;-0.038;2022-12-11T05:18:37;13.38;;;6.80;;
46230;SDS011;31949;51.404;-0.038;2022-12-11T05:21:05;11.70;;;6.57;;
46230;SDS011;31949;51.404;-0.038;2022-12-11T05:23:34;11.23;;;6.63;;
46230;SDS011;31949;51.404;-0.038;2022-12-11T05:26:04;12.25;;;5.97;;
46230;SDS011;31949;51.404;-0.038;2022-12-11T05:28:35;8.25;;;6.35;;
46230;SDS011;31949;51.404;-0.038;2022-12-11T05:31:04;11.82;;;7.22;;
46230;SDS011;31949;51.404;-0.038;2022-12-11T05:33:38;12.52;;;6.97;;
46230;SDS011;31949;51.404;-0.038;2022-12-11T05:36:06;13.48;;;6.70;;
46230;SDS011;31949;51.404;-0.038;2022-12-11T05:38:33;9.70;;;6.13;;
46230;SDS011;31949;51.404;-0.038;2022-12-11T05:41:02;11.23;;;7.13;;
46230;SDS011;31949;51.404;-0.038;2022-12-11T05:43:32;12.93;;;8.23;;
46230;SDS011;31949;51.404;-0.038;2022-12-11T05:46:17;10.95;;;6.50;;
46230;SDS011;31949;51.404;-0.038;2022-12-11T05:48:46;17.08;;;8.75;;
46230;SDS011;31949;51.404;-0.038;2022-12-11T05:51:18;12.63;;;7.93;;
46230;SDS011;31949;51.404;-0.038;2022-12-11T05:53:46;15.73;;;7.82;;
46230;SDS011;31949;51.404;-0.038;2022-12-11T05:56:16;9.90;;;6.05;;
46230;SDS011;31949;51.404;-0.038;2022-12-11T05:58:45;13.52;;;7.40;;
46230;SDS011;31949;51.404;-0.038;2022-12-11T06:01:18;14.07;;;7.57;;
46230;SDS011;31949;51.404;-0.038;2022-12-11T06:03:47;11.23;;;7.63;;
46230;SDS011;31949;51.404;-0.038;2022-12-11T06:06:14;13.82;;;7.57;;
46230;SDS011;31949;51.404;-0.038;2022-12-11T06:08:42;13.38;;;7.35;;
46230;SDS011;31949;51.404;-0.038;2022-12-11T06:11:10;12.68;;;7.25;;
46230;SDS011;31949;51.404;-0.038;2022-12-11T06:13:39;13.13;;;6.68;;
46230;SDS011;31949;51.404;-0.038;2022-12-11T06:16:07;14.10;;;8.10;;
46230;SDS011;31949;51.404;-0.038;2022-12-11T06:18:36;9.93;;;6.35;;
46230;SDS011;31949;51.404;-0.038;2022-12-11T06:21:14;11.18;;;6.28;;
46230;SDS011;31949;51.404;-0.038;2022-12-11T06:23:43;14.63;;;7.95;;
46230;SDS011;31949;51.404;-0.038;2022-12-11T06:26:16;11.60;;;7.80;;
46230;SDS011;31949;51.404;-0.038;2022-12-11T06:28:47;13.18;;;7.30;;
46230;SDS011;31949;51.404;-0.038;2022-12-11T06:31:15;15.98;;;8.40;;
46230;SDS011;31949;51.404;-0.038;2022-12-11T06:33:43;11.18;;;7.57;;
46230;SDS011;31949;51.404;-0.038;2022-12-11T06:36:12;15.48;;;7.32;;
46230;SDS011;31949;51.404;-0.038;2022-12-11T06:38:41;10.18;;;6.57;;
46230;SDS011;31949;51.404;-0.038;2022-12-11T06:41:10;10.57;;;6.68;;
46230;SDS011;31949;51.404;-0.038;2022-12-11T06:43:37;12.02;;;7.68;;
46230;SDS011;31949;51.404;-0.038;2022-12-11T06:46:07;14.57;;;9.63;;
46230;SDS011;31949;51.404;-0.038;2022-12-11T06:48:36;22.73;;;11.57;;
46230;SDS011;31949;51.404;-0.038;2022-12-11T06:51:10;24.42;;;13.55;;
46230;SDS011;31949;51.404;-0.038;2022-12-11T06:53:39;26.38;;;14.68;;
46230;SDS011;31949;51.404;-0.038;2022-12-11T06:56:08;41.13;;;15.13;;
46230;SDS011;31949;51.404;-0.038;2022-12-11T06:58:37;39.58;;;16.02;;
46230;SDS011;31949;51.404;-0.038;2022-12-11T07:01:12;38.05;;;16.48;;
46230;SDS011;31949;51.404;-0.038;2022-12-11T07:03:47;27.25;;;13.48;;
46230;SDS011;31949;51.404;-0.038;2022-12-11T07:06:15;30.85;;;16.83;;
46230;SDS011;31949;51.404;-0.038;2022-12-11T07:08:42;32.50;;;16.27;;
46230;SDS011;31949;51.404;-0.038;2022-12-11T07:11:14;25.25;;;14.20;;
46230;SDS011;31949;51.404;-0.038;2022-12-11T07:13:42;36.05;;;14.73;;
46230;SDS011;31949;51.404;-0.038;2022-12-11T07:16:16;25.48;;;13.13;;
46230;SDS011;31949;51.404;-0.038;2022-12-11T07:18:48;44.67;;;18.35;;
46230;SDS011;31949;51.404;-0.038;2022-12-11T07:21:16;31.95;;;15.88;;
46230;SDS011;31949;51.404;-0.038;2022-12-11T07:23:44;42.15;;;15.88;;
46230;SDS011;31949;51.404;-0.038;2022-12-11T07:26:15;34.67;;;18.73;;
46230;SDS011;31949;51.404;-0.038;2022-12-11T07:28:44;28.95;;;17.02;;
46230;SDS011;31949;51.404;-0.038;2022-12-11T07:31:16;35.50;;;14.75;;
46230;SDS011;31949;51.404;-0.038;2022-12-11T07:33:51;36.88;;;18.08;;
46230;SDS011;31949;51.404;-0.038;2022-12-11T07:36:29;38.90;;;18.85;;
46230;SDS011;31949;51.404;-0.038;2022-12-11T07:39:02;33.03;;;15.48;;
46230;SDS011;31949;51.404;-0.038;2022-12-11T07:41:29;32.53;;;16.58;;
46230;SDS011;31949;51.404;-0.038;2022-12-11T07:43:58;29.17;;;14.90;;
46230;SDS011;31949;51.404;-0.038;2022-12-11T07:46:26;30.23;;;13.40;;
46230;SDS011;31949;51.404;-0.038;2022-12-11T07:49:01;29.20;;;13.77;;
46230;SDS011;31949;51.404;-0.038;2022-12-11T07:51:31;29.48;;;12.60;;
46230;SDS011;31949;51.404;-0.038;2022-12-11T07:54:07;27.88;;;14.38;;
46230;SDS011;31949;51.404;-0.038;2022-12-11T07:56:38;45.28;;;19.20;;
46230;SDS011;31949;51.404;-0.038;2022-12-11T07:59:09;38.20;;;16.50;;
46230;SDS011;31949;51.404;-0.038;2022-12-11T08:01:39;32.83;;;15.52;;
46230;SDS011;31949;51.404;-0.038;2022-12-11T08:04:09;29.75;;;15.70;;
46230;SDS011;31949;51.404;-0.038;2022-12-11T08:06:38;31.63;;;15.90;;
46230;SDS011;31949;51.404;-0.038;2022-12-11T08:09:09;34.53;;;16.42;;
46230;SDS011;31949;51.404;-0.038;2022-12-11T08:11:47;26.75;;;14.38;;
46230;SDS011;31949;51.404;-0.038;2022-12-11T08:14:15;25.90;;;14.75;;
46230;SDS011;31949;51.404;-0.038;2022-12-11T08:16:43;23.35;;;12.65;;
46230;SDS011;31949;51.404;-0.038;2022-12-11T08:19:10;26.33;;;13.02;;
46230;SDS011;31949;51.404;-0.038;2022-12-11T08:21:38;31.23;;;12.98;;
46230;SDS011;31949;51.404;-0.038;2022-12-11T08:24:06;26.85;;;12.65;;
46230;SDS011;31949;51.404;-0.038;2022-12-11T08:26:34;25.75;;;12.30;;
46230;SDS011;31949;51.404;-0.038;2022-12-11T08:29:01;44.60;;;12.65;;
46230;SDS011;31949;51.404;-0.038;2022-12-11T08:31:31;28.80;;;11.25;;
46230;SDS011;31949;51.404;-0.038;2022-12-11T08:33:58;25.50;;;11.55;;
46230;SDS011;31949;51.404;-0.038;2022-12-11T08:36:26;24.00;;;11.23;;
46230;SDS011;31949;51.404;-0.038;2022-12-11T08:38:54;18.55;;;10.98;;
46230;SDS011;31949;51.404;-0.038;2022-12-11T08:41:25;20.75;;;11.65;;
46230;SDS011;31949;51.404;-0.038;2022-12-11T08:43:59;22.55;;;10.93;;
46230;SDS011;31949;51.404;-0.038;2022-12-11T08:46:28;22.95;;;10.98;;
46230;SDS011;31949;51.404;-0.038;2022-12-11T08:48:57;22.63;;;10.65;;
46230;SDS011;31949;51.404;-0.038;2022-12-11T08:51:25;25.08;;;11.35;;
46230;SDS011;31949;51.404;-0.038;2022-12-11T08:53:53;24.35;;;12.23;;
46230;SDS011;31949;51.404;-0.038;2022-12-11T08:56:22;30.42;;;11.77;;
46230;SDS011;31949;51.404;-0.038;2022-12-11T08:58:50;25.42;;;10.88;;
46230;SDS011;31949;51.404;-0.038;2022-12-11T09:01:21;19.83;;;10.90;;
46230;SDS011;31949;51.404;-0.038;2022-12-11T09:03:51;21.02;;;9.40;;
46230;SDS011;31949;51.404;-0.038;2022-12-11T09:06:20;23.17;;;10.82;;
46230;SDS011;31949;51.404;-0.038;2022-12-11T09:08:50;28.67;;;11.52;;
46230;SDS011;31949;51.404;-0.038;2022-12-11T09:11:20;26.98;;;11.50;;
46230;SDS011;31949;51.404;-0.038;2022-12-11T09:13:53;17.48;;;10.73;;
46230;SDS011;31949;51.404;-0.038;2022-12-11T09:16:21;25.80;;;11.55;;
46230;SDS011;31949;51.404;-0.038;2022-12-11T09:18:50;21.50;;;10.65;;
46230;SDS011;31949;51.404;-0.038;2022-12-11T09:21:19;19.33;;;10.35;;
46230;SDS011;31949;51.404;-0.038;2022-12-11T09:23:49;26.67;;;12.50;;
46230;SDS011;31949;51.404;-0.038;2022-12-11T09:26:19;25.10;;;11.73;;
46230;SDS011;31949;51.404;-0.038;2022-12-11T09:28:46;24.23;;;12.18;;
46230;SDS011;31949;51.404;-0.038;2022-12-11T09:31:15;20.00;;;10.88;;
46230;SDS011;31949;51.404;-0.038;2022-12-11T09:33:44;22.35;;;10.18;;
46230;SDS011;31949;51.404;-0.038;2022-12-11T09:36:14;22.45;;;10.82;;
46230;SDS011;31949;51.404;-0.038;2022-12-11T09:38:41;21.35;;;12.00;;
46230;SDS011;31949;51.404;-0.038;2022-12-11T09:41:54;24.63;;;12.60;;
46230;SDS011;31949;51.404;-0.038;2022-12-11T09:44:15;24.20;;;11.18;;
46230;SDS011;31949;51.404;-0.038;2022-12-11T09:46:46;19.83;;;10.82;;
46230;SDS011;31949;51.404;-0.038;2022-12-11T09:49:21;20.65;;;11.25;;
46230;SDS011;31949;51.404;-0.038;2022-12-11T09:54:49;17.95;;;9.55;;
46230;SDS011;31949;51.404;-0.038;2022-12-11T09:59:58;22.92;;;12.80;;
46230;SDS011;31949;51.404;-0.038;2022-12-11T10:13:53;24.83;;;13.63;;
46230;SDS011;31949;51.404;-0.038;2022-12-11T10:19:13;30.42;;;15.00;;
46230;SDS011;31949;51.404;-0.038;2022-12-11T10:21:49;41.97;;;17.50;;
46230;SDS011;31949;51.404;-0.038;2022-12-11T10:24:31;22.60;;;15.05;;
46230;SDS011;31949;51.404;-0.038;2022-12-11T10:27:28;27.17;;;15.65;;
46230;SDS011;31949;51.404;-0.038;2022-12-11T10:38:10;28.92;;;16.88;;
46230;SDS011;31949;51.404;-0.038;2022-12-11T10:40:50;32.22;;;15.20;;
46230;SDS011;31949;51.404;-0.038;2022-12-11T10:43:30;29.58;;;15.40;;
46230;SDS011;31949;51.404;-0.038;2022-12-11T10:46:11;29.05;;;14.05;;
46230;SDS011;31949;51.404;-0.038;2022-12-11T10:48:54;28.15;;;15.93;;
46230;SDS011;31949;51.404;-0.038;2022-12-11T10:51:33;27.38;;;15.68;;
46230;SDS011;31949;51.404;-0.038;2022-12-11T10:56:33;27.77;;;13.60;;
46230;SDS011;31949;51.404;-0.038;2022-12-11T10:59:03;25.40;;;13.63;;
46230;SDS011;31949;51.404;-0.038;2022-12-11T11:01:31;25.13;;;12.77;;
46230;SDS011;31949;51.404;-0.038;2022-12-11T11:04:06;24.77;;;13.95;;
46230;SDS011;31949;51.404;-0.038;2022-12-11T11:09:40;25.67;;;15.75;;
46230;SDS011;31949;51.404;-0.038;2022-12-11T11:14:57;32.80;;;16.73;;
46230;SDS011;31949;51.404;-0.038;2022-12-11T11:17:29;30.52;;;16.58;;
46230;SDS011;31949;51.404;-0.038;2022-12-11T11:20:03;26.73;;;14.68;;
46230;SDS011;31949;51.404;-0.038;2022-12-11T11:22:52;30.30;;;15.77;;
46230;SDS011;31949;51.404;-0.038;2022-12-11T11:25:29;35.15;;;17.95;;
46230;SDS011;31949;51.404;-0.038;2022-12-11T11:28:02;28.25;;;16.33;;
46230;SDS011;31949;51.404;-0.038;2022-12-11T11:30:35;32.10;;;16.48;;
46230;SDS011;31949;51.404;-0.038;2022-12-11T11:35:38;35.33;;;17.50;;
46230;SDS011;31949;51.404;-0.038;2022-12-11T11:38:24;35.75;;;17.15;;
46230;SDS011;31949;51.404;-0.038;2022-12-11T11:41:18;31.83;;;16.27;;
46230;SDS011;31949;51.404;-0.038;2022-12-11T11:43:50;33.95;;;16.60;;
46230;SDS011;31949;51.404;-0.038;2022-12-11T11:57:54;35.63;;;17.20;;
46230;SDS011;31949;51.404;-0.038;2022-12-11T12:00:27;29.27;;;15.35;;
46230;SDS011;31949;51.404;-0.038;2022-12-11T12:03:00;29.08;;;15.35;;
46230;SDS011;31949;51.404;-0.038;2022-12-11T12:05:41;26.58;;;14.88;;
46230;SDS011;31949;51.404;-0.038;2022-12-11T12:11:33;37.65;;;17.95;;
46230;SDS011;31949;51.404;-0.038;2022-12-11T12:14:28;32.25;;;16.30;;
46230;SDS011;31949;51.404;-0.038;2022-12-11T12:19:50;33.30;;;16.85;;
46230;SDS011;31949;51.404;-0.038;2022-12-11T12:34:25;29.38;;;16.10;;
46230;SDS011;31949;51.404;-0.038;2022-12-11T12:37:30;31.70;;;15.25;;
46230;SDS011;31949;51.404;-0.038;2022-12-11T12:48:31;42.45;;;20.17;;
46230;SDS011;31949;51.404;-0.038;2022-12-11T12:50:59;37.15;;;17.67;;
46230;SDS011;31949;51.404;-0.038;2022-12-11T12:53:27;36.13;;;15.23;;
46230;SDS011;31949;51.404;-0.038;2022-12-11T12:55:58;31.58;;;16.67;;
46230;SDS011;31949;51.404;-0.038;2022-12-11T13:01:47;36.25;;;17.98;;
46230;SDS011;31949;51.404;-0.038;2022-12-11T13:09:23;40.85;;;18.25;;
46230;SDS011;31949;51.404;-0.038;2022-12-11T13:11:52;35.85;;;17.52;;
46230;SDS011;31949;51.404;-0.038;2022-12-11T13:14:25;34.47;;;16.52;;
46230;SDS011;31949;51.404;-0.038;2022-12-11T13:17:21;36.47;;;16.67;;
46230;SDS011;31949;51.404;-0.038;2022-12-11T13:20:14;32.22;;;14.80;;
46230;SDS011;31949;51.404;-0.038;2022-12-11T13:23:26;32.50;;;16.38;;
46230;SDS011;31949;51.404;-0.038;2022-12-11T13:33:51;31.65;;;17.98;;
46230;SDS011;31949;51.404;-0.038;2022-12-11T13:38:52;46.67;;;21.38;;
46230;SDS011;31949;51.404;-0.038;2022-12-11T13:41:22;38.05;;;16.33;;
46230;SDS011;31949;51.404;-0.038;2022-12-11T13:43:52;38.40;;;16.00;;
46230;SDS011;31949;51.404;-0.038;2022-12-11T13:46:25;35.28;;;16.60;;
46230;SDS011;31949;51.404;-0.038;2022-12-11T13:48:56;37.97;;;17.83;;
46230;SDS011;31949;51.404;-0.038;2022-12-11T13:51:30;39.53;;;16.60;;
46230;SDS011;31949;51.404;-0.038;2022-12-11T13:54:04;33.17;;;15.23;;
46230;SDS011;31949;51.404;-0.038;2022-12-11T13:56:53;31.88;;;13.95;;
46230;SDS011;31949;51.404;-0.038;2022-12-11T14:01:58;35.95;;;17.75;;
46230;SDS011;31949;51.404;-0.038;2022-12-11T14:04:32;39.00;;;18.25;;
46230;SDS011;31949;51.404;-0.038;2022-12-11T14:07:00;28.83;;;14.80;;
46230;SDS011;31949;51.404;-0.038;2022-12-11T14:09:32;35.20;;;17.30;;
46230;SDS011;31949;51.404;-0.038;2022-12-11T14:11:59;30.85;;;15.13;;
46230;SDS011;31949;51.404;-0.038;2022-12-11T14:14:29;37.47;;;17.20;;
46230;SDS011;31949;51.404;-0.038;2022-12-11T14:17:12;32.35;;;14.68;;
46230;SDS011;31949;51.404;-0.038;2022-12-11T14:19:44;33.03;;;15.15;;
46230;SDS011;31949;51.404;-0.038;2022-12-11T14:22:17;34.97;;;16.88;;
46230;SDS011;31949;51.404;-0.038;2022-12-11T14:24:53;37.22;;;17.08;;
46230;SDS011;31949;51.404;-0.038;2022-12-11T14:27:26;34.97;;;15.20;;
46230;SDS011;31949;51.404;-0.038;2022-12-11T14:30:08;34.83;;;15.82;;
46230;SDS011;31949;51.404;-0.038;2022-12-11T14:32:38;34.53;;;15.50;;
46230;SDS011;31949;51.404;-0.038;2022-12-11T14:35:17;35.55;;;15.40;;
46230;SDS011;31949;51.404;-0.038;2022-12-11T14:38:10;31.65;;;15.93;;
46230;SDS011;31949;51.404;-0.038;2022-12-11T14:40:46;42.83;;;18.52;;
46230;SDS011;31949;51.404;-0.038;2022-12-11T14:43:20;33.33;;;16.48;;
46230;SDS011;31949;51.404;-0.038;2022-12-11T14:45:54;35.28;;;15.75;;
46230;SDS011;31949;51.404;-0.038;2022-12-11T14:48:26;33.63;;;15.98;;
46230;SDS011;31949;51.404;-0.038;2022-12-11T14:50:59;36.60;;;17.08;;
46230;SDS011;31949;51.404;-0.038;2022-12-11T14:53:34;35.30;;;16.33;;
46230;SDS011;31949;51.404;-0.038;2022-12-11T14:56:07;37.67;;;15.88;;
46230;SDS011;31949;51.404;-0.038;2022-12-11T14:58:42;35.13;;;17.05;;
46230;SDS011;31949;51.404;-0.038;2022-12-11T15:01:28;30.25;;;14.75;;
46230;SDS011;31949;51.404;-0.038;2022-12-11T15:06:41;40.17;;;17.70;;
46230;SDS011;31949;51.404;-0.038;2022-12-11T15:09:20;38.15;;;17.23;;
46230;SDS011;31949;51.404;-0.038;2022-12-11T15:12:06;33.97;;;16.15;;
46230;SDS011;31949;51.404;-0.038;2022-12-11T15:14:39;36.00;;;15.93;;
46230;SDS011;31949;51.404;-0.038;2022-12-11T15:17:14;45.92;;;18.60;;
46230;SDS011;31949;51.404;-0.038;2022-12-11T15:19:44;40.13;;;17.88;;
46230;SDS011;31949;51.404;-0.038;2022-12-11T15:22:16;40.85;;;17.63;;
46230;SDS011;31949;51.404;-0.038;2022-12-11T15:24:45;43.22;;;17.92;;
46230;SDS011;31949;51.404;-0.038;2022-12-11T15:29:59;54.63;;;22.55;;
46230;SDS011;31949;51.404;-0.038;2022-12-11T15:32:27;40.63;;;20.35;;
46230;SDS011;31949;51.404;-0.038;2022-12-11T15:34:55;40.75;;;18.15;;
46230;SDS011;31949;51.404;-0.038;2022-12-11T15:37:29;44.40;;;17.98;;
46230;SDS011;31949;51.404;-0.038;2022-12-11T15:39:59;43.30;;;18.15;;
46230;SDS011;31949;51.404;-0.038;2022-12-11T15:42:29;56.08;;;20.42;;
46230;SDS011;31949;51.404;-0.038;2022-12-11T15:45:06;47.28;;;18.75;;
46230;SDS011;31949;51.404;-0.038;2022-12-11T15:47:41;42.53;;;20.05;;
46230;SDS011;31949;51.404;-0.038;2022-12-11T15:50:16;38.92;;;16.67;;
46230;SDS011;31949;51.404;-0.038;2022-12-11T15:52:44;49.92;;;20.75;;
46230;SDS011;31949;51.404;-0.038;2022-12-11T15:55:12;46.40;;;19.95;;
46230;SDS011;31949;51.404;-0.038;2022-12-11T15:57:43;53.05;;;20.42;;
46230;SDS011;31949;51.404;-0.038;2022-12-11T16:00:13;52.42;;;20.95;;
46230;SDS011;31949;51.404;-0.038;2022-12-11T16:02:43;48.47;;;21.27;;
46230;SDS011;31949;51.404;-0.038;2022-12-11T16:05:11;49.92;;;19.40;;
46230;SDS011;31949;51.404;-0.038;2022-12-11T16:07:39;42.60;;;17.83;;
46230;SDS011;31949;51.404;-0.038;2022-12-11T16:10:07;42.72;;;17.85;;
46230;SDS011;31949;51.404;-0.038;2022-12-11T16:12:43;47.45;;;20.77;;
46230;SDS011;31949;51.404;-0.038;2022-12-11T16:15:12;56.70;;;22.30;;
46230;SDS011;31949;51.404;-0.038;2022-12-11T16:17:48;47.83;;;21.60;;
46230;SDS011;31949;51.404;-0.038;2022-12-11T16:20:16;45.60;;;19.83;;
46230;SDS011;31949;51.404;-0.038;2022-12-11T16:22:43;43.00;;;18.45;;
46230;SDS011;31949;51.404;-0.038;2022-12-11T16:25:11;47.33;;;21.60;;
46230;SDS011;31949;51.404;-0.038;2022-12-11T16:27:38;48.45;;;20.17;;
46230;SDS011;31949;51.404;-0.038;2022-12-11T16:30:05;45.03;;;20.08;;
46230;SDS011;31949;51.404;-0.038;2022-12-11T16:32:33;44.35;;;20.70;;
46230;SDS011;31949;51.404;-0.038;2022-12-11T16:35:01;50.13;;;21.10;;
46230;SDS011;31949;51.404;-0.038;2022-12-11T16:37:28;44.45;;;19.58;;
46230;SDS011;31949;51.404;-0.038;2022-12-11T16:39:56;72.10;;;27.95;;